Monday, December 10, 2018, 9:23 PM EST
Back to Local

KIPT, Williamsport-lycoming County

Location: Montoursville, PA, United States Lat: 41.25
Local Time: 9:23 PM EST ( 2:23 GMT) Lon: -76.917
Time Zone: US/Eastern Elev: 528 ft

Show me the last for .
Show Decoded

2018-12-10 20:54 METAR KIPT 110154Z 00000KT 10SM CLR M04/M06 A3018 RMK AO2 SLP228 T10391061 =
2018-12-10 19:54 METAR KIPT 110054Z 00000KT 10SM CLR M03/M07 A3018 RMK AO2 SLP226 T10281067 =
2018-12-10 18:54 METAR KIPT 102354Z 00000KT 10SM CLR M02/M07 A3016 RMK AO2 SLP220 T10171067 10039
                 21022 51008 =
2018-12-10 17:54 METAR KIPT 102254Z 00000KT 10SM CLR M02/M07 A3015 RMK AO2 SLP218 T10171067 =
2018-12-10 16:54 METAR KIPT 102154Z 00000KT 10SM CLR 02/M07 A3015 RMK AO2 SLP215 T00171067 =
2018-12-10 15:54 METAR KIPT 102054Z 35005KT 10SM CLR 03/M07 A3013 RMK AO2 SLP211 T00281067 55002
                 =
2018-12-10 14:54 METAR KIPT 101954Z 31006KT 10SM CLR 03/M07 A3013 RMK AO2 SLP210 T00331067 =
2018-12-10 13:54 METAR KIPT 101854Z 35009KT 10SM FEW035 04/M07 A3014 RMK AO2 SLP212 T00391067 =
2018-12-10 12:54 METAR KIPT 101754Z 36009KT 10SM SCT035 03/M07 A3014 RMK AO2 SLP214 T00331067
                 10039 21044 58014 =
2018-12-10 11:54 METAR KIPT 101654Z 02008KT 10SM BKN031 02/M06 A3016 RMK AO2 SLP220 T00221061 =
2018-12-10 10:54 METAR KIPT 101554Z 25006KT 10SM OVC031 M01/M06 A3018 RMK AO2 SLP227 T10061056 =
2018-12-10 09:54 METAR KIPT 101454Z 28008KT 10SM OVC030 M02/M06 A3018 RMK AO2 SLP228 T10221061
                 51012 =
2018-12-10 08:54 METAR KIPT 101354Z 26007KT 10SM OVC027 M03/M07 A3018 RMK AO2 SLP226 T10331067 =
2018-12-10 07:54 METAR KIPT 101254Z 27008KT 10SM OVC025 M04/M07 A3016 RMK AO2 SLP221 T10391067 =
2018-12-10 06:54 METAR KIPT 101154Z 27009KT 10SM OVC026 M04/M07 A3015 RMK AO2 SLP216 T10441072
                 11044 21078 53001 =
2018-12-10 06:09 METAR KIPT 101109Z AUTO 27010KT 10SM OVC029 M05/M07 A3014 RMK AO2 T10501072 =
2018-12-10 05:54 METAR KIPT 101054Z AUTO 28007KT 10SM OVC030 M05/M08 A3014 RMK AO2 SLP215
                 T10501078 =
2018-12-10 05:41 METAR KIPT 101041Z AUTO 29007KT 10SM OVC030 M05/M08 A3014 RMK AO2 T10501078 =
2018-12-10 04:54 METAR KIPT 100954Z AUTO 00000KT 10SM OVC028 M06/M08 A3014 RMK AO2 SLP215
                 T10561078 =
2018-12-10 03:54 METAR KIPT 100854Z AUTO 00000KT 8SM OVC028 M06/M08 A3015 RMK AO2 SLP216
                 T10611083 58004 =
2018-12-10 02:54 METAR KIPT 100754Z AUTO 31004KT 9SM BKN026 M07/M09 A3016 RMK AO2 SLP223
                 T10721094 =
2018-12-10 01:54 METAR KIPT 100654Z AUTO 00000KT 10SM CLR M07/M09 A3016 RMK AO2 SLP221 T10721094
                 =
2018-12-10 00:54 METAR KIPT 100554Z AUTO 33003KT 10SM CLR M07/M09 A3016 RMK AO2 SLP219 T10671089
                 11028 21067 58009 =
2018-12-09 23:54 METAR KIPT 100454Z AUTO 00000KT 10SM CLR M06/M08 A3017 RMK AO2 SLP223 T10611083
                 400001072 =
2018-12-09 22:54 METAR KIPT 100354Z AUTO 00000KT 10SM CLR M05/M08 A3018 RMK AO2 SLP228 T10501083
                 =
2018-12-09 21:54 METAR KIPT 100254Z 00000KT 10SM CLR M04/M08 A3018 RMK AO2 SLP229 T10441078 58015
                 =

Support USWX by starting your Amazon purchase here.